ADDS METAR Data INFO
IDs: Format: Raw Decoded Include TAF

Data at: 0437 UTC 24 Apr 2018

KEDC 240435Z AUTO 00000KT 10SM CLR 19/10 A3006 RMK AO2
KEDC 240415Z AUTO 00000KT 10SM CLR 18/10 A3006 RMK AO2
KEDC 240355Z AUTO 00000KT 10SM CLR 19/10 A3005 RMK AO2
KEDC 240335Z AUTO 00000KT 10SM CLR 19/10 A3005 RMK AO2
KEDC 240315Z AUTO 00000KT 10SM CLR 19/10 A3004 RMK AO2
KEDC 240255Z AUTO 00000KT 10SM CLR 19/10 A3002 RMK AO2
KEDC 240235Z AUTO 00000KT 10SM CLR 20/09 A3002 RMK AO2
KEDC 240215Z AUTO 00000KT 10SM CLR 21/09 A3002 RMK AO2
KEDC 240155Z AUTO 00000KT 10SM CLR 22/09 A3001 RMK AO2
KEDC 240135Z AUTO 00000KT 10SM CLR 23/09 A3000 RMK AO2
KEDC 240115Z AUTO 00000KT 10SM CLR 23/09 A2999 RMK AO2
KEDC 240055Z AUTO 00000KT 10SM CLR 24/09 A2998 RMK AO2
KEDC 240035Z AUTO 00000KT 10SM CLR 25/09 A2998 RMK AO2
KEDC 240015Z AUTO 03004KT 10SM CLR 26/09 A2998 RMK AO2
KEDC 232355Z AUTO 02007KT 10SM CLR 27/09 A2998 RMK AO2
KEDC 232335Z AUTO 01007KT 10SM CLR 27/09 A2998 RMK AO2
KEDC 232315Z AUTO 02006KT 10SM CLR 27/09 A2998 RMK AO2
KEDC 232255Z AUTO 01006KT 10SM CLR 27/09 A2998 RMK AO2
KEDC 232235Z AUTO 35008KT 10SM CLR 28/09 A2998 RMK AO2
KEDC 232215Z AUTO 36007KT 10SM CLR 28/09 A2999 RMK AO2
KEDC 232155Z AUTO 01009KT 10SM CLR 28/09 A2999 RMK AO2
KEDC 232135Z AUTO 29005KT 10SM CLR 27/09 A3000 RMK AO2
KEDC 232115Z AUTO 30005KT 10SM CLR 27/09 A3001 RMK AO2
KEDC 232055Z AUTO 00000KT 10SM CLR 27/09 A3002 RMK AO2
KEDC 232035Z AUTO 00000KT 10SM CLR 27/09 A3003 RMK AO2
KEDC 232015Z AUTO 00000KT 10SM CLR 26/09 A3005 RMK AO2
KEDC 231955Z AUTO 31003KT 10SM CLR 26/09 A3006 RMK AO2
KEDC 231935Z AUTO 29005KT 10SM CLR 25/09 A3006 RMK AO2
KEDC 231915Z AUTO 32003KT 10SM CLR 25/09 A3007 RMK AO2
KEDC 231855Z AUTO 32010KT 10SM CLR 25/09 A3008 RMK AO2
KEDC 231835Z AUTO 29003KT 10SM CLR 24/08 A3009 RMK AO2
KEDC 231815Z AUTO 32007G15KT 10SM CLR 24/08 A3010 RMK AO2
KEDC 231755Z AUTO 32009KT 10SM CLR 24/08 A3011 RMK AO2
KEDC 231735Z AUTO 31009G15KT 10SM CLR 24/08 A3012 RMK AO2
KEDC 231715Z AUTO 36013KT 10SM CLR 23/08 A3012 RMK AO2
KEDC 231655Z AUTO 34011G15KT 10SM CLR 23/08 A3012 RMK AO2
KEDC 231635Z AUTO 32008KT 10SM CLR 23/08 A3013 RMK AO2
KEDC 231615Z AUTO 32007KT 10SM CLR 22/08 A3013 RMK AO2
KEDC 231555Z AUTO 03008KT 10SM CLR 22/08 A3013 RMK AO2
KEDC 231535Z AUTO 35009KT 10SM CLR 21/08 A3013 RMK AO2
KEDC 231515Z AUTO 36011G14KT 10SM CLR 20/08 A3013 RMK AO2
KEDC 231455Z AUTO 34011KT 10SM CLR 20/08 A3013 RMK AO2
KEDC 231435Z AUTO 34010KT 10SM CLR 19/08 A3013 RMK AO2
KEDC 231415Z AUTO 32008KT 10SM CLR 18/08 A3014 RMK AO2
KEDC 231355Z AUTO 00000KT 10SM CLR 17/09 A3014 RMK AO2
KEDC 231335Z AUTO 33005KT 10SM CLR 16/09 A3013 RMK AO2
KEDC 231315Z AUTO 00000KT 10SM CLR 15/09 A3013 RMK AO2
KEDC 231255Z AUTO 00000KT 10SM CLR 13/09 A3012 RMK AO2
KEDC 231235Z AUTO 00000KT 10SM CLR 13/08 A3012 RMK AO2
KEDC 231215Z AUTO 31006KT 10SM CLR 12/08 A3011 RMK AO2
KEDC 231155Z AUTO 31005KT 10SM CLR 13/08 A3010 RMK AO2
KEDC 231135Z AUTO 30006KT 10SM CLR 12/07 A3009 RMK AO2
KEDC 231115Z AUTO 30005KT 10SM CLR 12/08 A3009 RMK AO2
KEDC 231055Z AUTO 00000KT 10SM CLR 12/08 A3009 RMK AO2
KEDC 231035Z AUTO 00000KT 10SM CLR 12/08 A3008 RMK AO2
KEDC 231015Z AUTO 00000KT 10SM CLR 12/08 A3007 RMK AO2
KEDC 230955Z AUTO 00000KT 10SM CLR 12/08 A3007 RMK AO2
KEDC 230935Z AUTO 00000KT 10SM CLR 12/08 A3006 RMK AO2
KEDC 230915Z AUTO 00000KT 10SM CLR 13/08 A3006 RMK AO2
KEDC 230855Z AUTO 00000KT 10SM CLR 12/08 A3006 RMK AO2
KEDC 230835Z AUTO 00000KT 10SM CLR 12/08 A3006 RMK AO2
KEDC 230815Z AUTO 00000KT 10SM CLR 11/08 A3007 RMK AO2
KEDC 230755Z AUTO 00000KT 10SM CLR 12/08 A3006 RMK AO2
KEDC 230735Z AUTO 00000KT 10SM CLR 12/08 A3007 RMK AO2
KEDC 230715Z AUTO 26004KT 10SM CLR 12/08 A3008 RMK AO2
KEDC 230655Z AUTO 00000KT 10SM CLR 12/08 A3008 RMK AO2
KEDC 230635Z AUTO 00000KT 10SM CLR 12/08 A3007 RMK AO2
KEDC 230615Z AUTO 00000KT 10SM CLR 13/08 A3008 RMK AO2
KEDC 230555Z AUTO 00000KT 10SM CLR 14/08 A3007 RMK AO2
KEDC 230535Z AUTO 02005KT 10SM CLR 14/08 A3006 RMK AO2
KEDC 230515Z AUTO 02009KT 10SM CLR 14/08 A3006 RMK AO2
KEDC 230455Z AUTO 02006KT 10SM CLR 14/08 A3006 RMK AO2
KEDC 230435Z AUTO 03003KT 10SM CLR 15/08 A3006 RMK AO2
KEDC 230415Z AUTO 00000KT 10SM CLR 15/08 A3005 RMK AO2
KEDC 230355Z AUTO 00000KT 10SM CLR 15/07 A3006 RMK AO2
KEDC 230335Z AUTO 03003KT 10SM CLR 17/07 A3006 RMK AO2
KEDC 230315Z AUTO 02006KT 10SM CLR 17/07 A3006 RMK AO2
KEDC 230255Z AUTO 02005KT 10SM CLR 17/07 A3006 RMK AO2
KEDC 230235Z AUTO 02006KT 10SM CLR 17/07 A3006 RMK AO2
KEDC 230215Z AUTO 02007KT 10SM CLR 18/07 A3005 RMK AO2
KEDC 230155Z AUTO 01008KT 10SM CLR 19/07 A3004 RMK AO2
KEDC 230135Z AUTO 02007KT 10SM CLR 19/07 A3003 RMK AO2
KEDC 230115Z AUTO 01006KT 10SM CLR 20/07 A3003 RMK AO2
KEDC 230055Z AUTO 01007KT 10SM CLR 20/07 A3002 RMK AO2
KEDC 230035Z AUTO 36010KT 10SM CLR 21/07 A3002 RMK AO2
KEDC 230015Z AUTO 35009KT 10SM CLR 22/07 A3002 RMK AO2
KEDC 222355Z AUTO 01011G16KT 10SM CLR 22/08 A3001 RMK AO2
KEDC 222335Z AUTO 02009KT 10SM CLR 23/08 A3002 RMK AO2
KEDC 222315Z AUTO 01009KT 10SM CLR 23/08 A3001 RMK AO2
KEDC 222255Z AUTO 01011KT 10SM CLR 23/08 A3001 RMK AO2
KEDC 222235Z AUTO 35008KT 10SM CLR 23/08 A3002 RMK AO2
KEDC 222215Z AUTO 01010G14KT 10SM CLR 24/08 A3001 RMK AO2
KEDC 222155Z AUTO 32010G15KT 10SM CLR 23/08 A3002 RMK AO2
KEDC 222055Z AUTO 33012G15KT 10SM CLR 23/09 A3004 RMK AO2
KEDC 222035Z AUTO 34012KT 320V030 10SM CLR 22/09 A3005 RMK AO2
KEDC 221955Z AUTO 32009G14KT 10SM CLR 22/09 A3007 RMK AO2
KEDC 221915Z AUTO 32010KT 10SM CLR 20/09 A3008 RMK AO2
KEDC 221855Z AUTO 34010G19KT 10SM CLR 20/09 A3009 RMK AO2
KEDC 221835Z AUTO 34010G18KT 10SM CLR 20/09 A3009 RMK AO2
KEDC 221815Z AUTO 33010G14KT 10SM CLR 19/09 A3011 RMK AO2
KEDC 221755Z AUTO 01010G15KT 10SM CLR 18/09 A3011 RMK AO2
KEDC 221735Z AUTO 33011G14KT 10SM CLR 18/09 A3013 RMK AO2
KEDC 221715Z AUTO 35009G14KT 10SM CLR 18/09 A3014 RMK AO2
KEDC 221655Z AUTO 34008KT 10SM SCT028 17/09 A3015 RMK AO2